createdAt,value
2022-09-18T00:01:51.451Z,13.57
2022-09-18T00:04:20.891Z,13.61
2022-09-18T00:06:52.891Z,13.60
2022-09-18T00:09:22.331Z,13.65
2022-09-18T00:11:51.795Z,13.65
2022-09-18T00:14:22.524Z,13.65
2022-09-18T00:16:52.083Z,13.65
2022-09-18T00:19:21.599Z,13.65
2022-09-18T00:21:53.783Z,13.65
2022-09-18T00:24:24.273Z,13.65
2022-09-18T00:26:53.786Z,13.70
2022-09-18T00:29:23.208Z,13.69
2022-09-18T00:31:52.671Z,13.72
2022-09-18T00:34:22.510Z,13.73
2022-09-18T00:36:54.485Z,13.69
2022-09-18T00:39:23.953Z,13.73
2022-09-18T00:41:53.587Z,13.73
2022-09-18T00:44:33.106Z,13.80
2022-09-18T00:47:06.818Z,13.78
2022-09-18T00:49:36.497Z,13.70
2022-09-18T00:52:08.927Z,13.77
2022-09-18T00:54:40.020Z,13.78
2022-09-18T00:57:10.732Z,13.79
2022-09-18T00:59:40.589Z,13.90
2022-09-18T01:02:10.021Z,13.80
2022-09-18T01:04:39.509Z,13.80
2022-09-18T01:07:14.947Z,13.88
2022-09-18T01:09:48.346Z,13.86
2022-09-18T01:12:22.826Z,13.93
2022-09-18T01:14:54.695Z,13.91
2022-09-18T01:17:28.651Z,13.80
2022-09-18T01:20:23.343Z,13.75
2022-09-18T01:23:05.610Z,13.79
2022-09-18T01:25:37.554Z,13.87
2022-09-18T01:28:19.674Z,13.89
2022-09-18T01:30:49.353Z,13.92
2022-09-18T01:33:21.164Z,13.95
2022-09-18T01:35:51.317Z,13.94
2022-09-18T01:38:22.347Z,13.90
2022-09-18T01:40:52.619Z,13.90
2022-09-18T01:43:24.625Z,13.95
2022-09-18T01:45:55.494Z,13.89
2022-09-18T01:48:29.310Z,13.86
2022-09-18T01:51:01.127Z,13.98
2022-09-18T01:53:32.482Z,13.98
2022-09-18T01:56:04.443Z,14.04
2022-09-18T01:58:36.694Z,14.03
2022-09-18T02:01:07.899Z,14.04
2022-09-18T02:03:38.810Z,14.04
2022-09-18T02:06:10.430Z,14.07
2022-09-18T02:08:41.506Z,14.08
2022-09-18T02:11:12.294Z,14.05
2022-09-18T02:13:45.291Z,14.08
2022-09-18T02:16:17.926Z,14.11
2022-09-18T02:18:48.575Z,14.01
2022-09-18T02:21:21.200Z,13.97
2022-09-18T02:23:50.607Z,13.99
2022-09-18T02:26:20.176Z,13.98
2022-09-18T02:28:52.184Z,14.01
2022-09-18T02:31:21.651Z,14.13
2022-09-18T02:33:53.441Z,14.10
2022-09-18T02:36:41.757Z,14.06
2022-09-18T02:39:17.541Z,14.16
2022-09-18T02:41:49.269Z,14.24
2022-09-18T02:44:22.488Z,14.21
2022-09-18T02:46:58.276Z,14.17
2022-09-18T02:49:35.301Z,14.16
2022-09-18T02:52:06.625Z,14.15
2022-09-18T02:54:38.845Z,14.11
2022-09-18T02:57:10.829Z,14.03
2022-09-18T02:59:43.305Z,14.07
2022-09-18T03:02:12.835Z,14.03
2022-09-18T03:04:42.307Z,14.05
2022-09-18T03:07:14.615Z,14.09
2022-09-18T03:09:44.037Z,14.22
2022-09-18T03:12:13.466Z,14.33
2022-09-18T03:14:45.448Z,14.33
2022-09-18T03:17:14.959Z,14.21
2022-09-18T03:19:44.746Z,14.28
2022-09-18T03:22:14.383Z,14.24
2022-09-18T03:24:43.762Z,14.17
2022-09-18T03:27:13.202Z,14.23
2022-09-18T03:29:45.227Z,14.26
2022-09-18T03:32:14.695Z,14.20
2022-09-18T03:34:44.093Z,14.27
2022-09-18T03:37:13.498Z,14.27
2022-09-18T03:39:42.901Z,14.30
2022-09-18T03:42:12.314Z,14.30
2022-09-18T03:44:41.705Z,14.33
2022-09-18T03:47:13.695Z,14.34
2022-09-18T03:49:43.089Z,14.27
2022-09-18T03:52:12.547Z,14.24
2022-09-18T03:54:41.939Z,14.18
2022-09-18T03:57:11.349Z,14.22
2022-09-18T03:59:40.754Z,14.23
2022-09-18T04:02:12.840Z,14.18
2022-09-18T04:04:42.269Z,14.19
2022-09-18T04:07:11.720Z,14.25
2022-09-18T04:09:41.149Z,14.21
2022-09-18T04:12:10.769Z,14.21
2022-09-18T04:14:40.167Z,14.11
2022-09-18T04:17:09.575Z,14.10
2022-09-18T04:19:41.590Z,14.14
2022-09-18T04:22:10.983Z,14.19
2022-09-18T04:24:40.387Z,14.02
2022-09-18T04:27:09.937Z,13.89
2022-09-18T04:29:39.360Z,13.92
2022-09-18T04:32:09.671Z,13.91
2022-09-18T04:34:41.662Z,13.94
2022-09-18T04:37:11.095Z,13.94
2022-09-18T04:39:40.504Z,13.93
2022-09-18T04:42:10.073Z,13.95
2022-09-18T04:44:39.465Z,13.96
2022-09-18T04:47:08.990Z,13.91
2022-09-18T04:49:41.108Z,13.84
2022-09-18T04:52:10.725Z,13.81
2022-09-18T04:54:40.321Z,13.79
2022-09-18T04:57:09.729Z,13.71
2022-09-18T04:59:39.163Z,13.71
2022-09-18T05:02:08.667Z,13.73
2022-09-18T05:04:40.726Z,13.69
2022-09-18T05:07:10.141Z,13.73
2022-09-18T05:09:39.554Z,13.71
2022-09-18T05:12:09.943Z,13.72
2022-09-18T05:14:39.333Z,13.79
2022-09-18T05:17:08.717Z,13.76
2022-09-18T05:19:40.717Z,13.81
2022-09-18T05:22:10.135Z,13.79
2022-09-18T05:24:39.553Z,13.77
2022-09-18T05:27:08.955Z,13.79
2022-09-18T05:30:08.876Z,13.84
2022-09-18T05:32:38.310Z,13.78
2022-09-18T05:35:11.007Z,13.77
2022-09-18T05:37:40.434Z,13.84
2022-09-18T05:40:10.687Z,13.83
2022-09-18T05:42:40.457Z,13.82
2022-09-18T05:45:10.756Z,13.86
2022-09-18T05:47:40.161Z,13.94
2022-09-18T05:50:12.756Z,13.93
2022-09-18T05:52:42.235Z,13.96
2022-09-18T05:55:12.177Z,13.90
2022-09-18T05:57:41.602Z,13.92
2022-09-18T06:00:12.679Z,13.96
2022-09-18T06:02:42.171Z,13.88
2022-09-18T06:05:14.278Z,13.84
2022-09-18T06:07:43.691Z,13.91
2022-09-18T06:10:13.082Z,13.91
2022-09-18T06:12:42.720Z,13.97
2022-09-18T06:15:12.741Z,14.04
2022-09-18T06:17:42.201Z,14.12
2022-09-18T06:20:14.923Z,14.19
2022-09-18T06:22:44.306Z,14.29
2022-09-18T06:25:13.720Z,14.25
2022-09-18T06:27:43.119Z,14.24
2022-09-18T06:30:13.774Z,14.24
2022-09-18T06:32:43.167Z,14.18
2022-09-18T06:35:15.219Z,14.27
2022-09-18T06:37:44.617Z,14.19
2022-09-18T06:40:14.100Z,14.18
2022-09-18T06:42:46.079Z,14.26
2022-09-18T06:45:15.689Z,14.30
2022-09-18T06:47:45.159Z,14.18
2022-09-18T06:50:17.693Z,14.32
2022-09-18T06:52:47.094Z,14.22
2022-09-18T06:55:16.683Z,14.28
2022-09-18T06:57:46.083Z,14.40
2022-09-18T07:00:15.897Z,14.50
2022-09-18T07:02:45.294Z,14.54
2022-09-18T07:05:17.435Z,14.66
2022-09-18T07:07:48.379Z,14.72
2022-09-18T07:10:17.934Z,14.76
2022-09-18T07:12:48.949Z,14.59
2022-09-18T07:15:18.920Z,14.63
2022-09-18T07:17:48.453Z,14.66
2022-09-18T07:20:20.559Z,14.74
2022-09-18T07:22:55.001Z,14.83
2022-09-18T07:25:24.623Z,14.73
2022-09-18T07:27:54.032Z,14.94
2022-09-18T07:30:23.663Z,15.00
2022-09-18T07:32:53.120Z,15.14
2022-09-18T07:35:25.123Z,15.16
2022-09-18T07:37:54.527Z,15.17
2022-09-18T07:40:24.041Z,15.27
2022-09-18T07:42:53.957Z,15.31
2022-09-18T07:45:23.383Z,15.36
2022-09-18T07:47:52.813Z,15.50
2022-09-18T07:50:24.889Z,15.64
2022-09-18T07:52:54.406Z,15.69
2022-09-18T07:55:24.365Z,15.85
2022-09-18T07:57:57.696Z,16.09
2022-09-18T08:00:27.192Z,16.04
2022-09-18T08:03:04.066Z,16.10
2022-09-18T08:05:36.166Z,16.17
2022-09-18T08:08:06.303Z,16.33
2022-09-18T08:10:35.958Z,16.39
2022-09-18T08:13:05.435Z,16.28
2022-09-18T08:15:35.172Z,16.20
2022-09-18T08:18:04.571Z,16.23
2022-09-18T08:20:36.574Z,16.09
2022-09-18T08:23:06.460Z,16.04
2022-09-18T08:25:37.285Z,15.89
2022-09-18T08:28:07.489Z,15.82
2022-09-18T08:30:37.108Z,15.87
2022-09-18T08:33:07.416Z,15.85
2022-09-18T08:35:39.416Z,15.89
2022-09-18T08:38:11.247Z,15.99
2022-09-18T08:40:55.776Z,15.99
2022-09-18T08:43:35.959Z,16.01
2022-09-18T08:46:07.395Z,16.15
2022-09-18T08:48:38.275Z,16.26
2022-09-18T08:51:20.616Z,16.35
2022-09-18T08:53:51.405Z,16.55
2022-09-18T08:56:23.882Z,16.53
2022-09-18T08:58:55.245Z,16.58
2022-09-18T09:01:24.711Z,16.64
2022-09-18T09:03:56.909Z,16.68
2022-09-18T09:06:45.980Z,16.71
2022-09-18T09:09:28.502Z,16.60
2022-09-18T09:12:02.313Z,16.42
2022-09-18T09:14:56.182Z,16.49
2022-09-18T09:17:33.547Z,16.46
2022-09-18T09:20:06.397Z,16.42
2022-09-18T09:22:40.887Z,16.39
2022-09-18T09:25:16.775Z,16.36
2022-09-18T09:27:47.321Z,16.43
2022-09-18T09:30:18.441Z,16.53
2022-09-18T09:32:49.628Z,16.57
2022-09-18T09:35:22.910Z,16.62
2022-09-18T09:37:55.480Z,16.48
2022-09-18T09:40:28.290Z,16.40
2022-09-18T09:42:58.933Z,16.43
2022-09-18T09:45:30.689Z,16.52
2022-09-18T09:48:04.722Z,16.53
2022-09-18T09:50:41.101Z,16.45
2022-09-18T09:53:15.063Z,16.41
2022-09-18T09:55:49.482Z,16.45
2022-09-18T09:58:24.063Z,16.39
2022-09-18T10:00:56.021Z,16.38
2022-09-18T10:03:38.321Z,16.54
2022-09-18T10:06:13.254Z,16.63
2022-09-18T10:08:47.189Z,16.68
2022-09-18T10:11:17.168Z,16.68
2022-09-18T10:13:48.520Z,16.64
2022-09-18T10:16:19.732Z,16.57
2022-09-18T10:18:50.018Z,16.63
2022-09-18T10:21:21.159Z,16.70
2022-09-18T10:23:53.427Z,16.75
2022-09-18T10:26:24.551Z,16.99
2022-09-18T10:28:53.784Z,17.09
2022-09-18T10:31:23.266Z,17.16
2022-09-18T10:33:53.509Z,17.26
2022-09-18T10:36:26.032Z,17.26
2022-09-18T10:38:58.018Z,17.38
2022-09-18T10:41:43.346Z,17.40
2022-09-18T10:44:23.241Z,17.41
2022-09-18T10:46:54.670Z,17.32
2022-09-18T10:49:26.590Z,17.15
2022-09-18T10:52:32.052Z,17.14
2022-09-18T10:55:12.875Z,17.00
2022-09-18T10:57:43.823Z,17.03
2022-09-18T11:00:38.934Z,17.06
2022-09-18T11:03:24.325Z,17.01
2022-09-18T11:05:55.491Z,16.96
2022-09-18T11:08:26.536Z,16.91
2022-09-18T11:11:02.927Z,16.82
2022-09-18T11:13:32.541Z,16.70
2022-09-18T11:16:02.731Z,16.63
2022-09-18T11:18:33.146Z,16.62
2022-09-18T11:21:04.480Z,16.62
2022-09-18T11:23:34.629Z,16.74
2022-09-18T11:26:19.873Z,16.74
2022-09-18T11:29:03.591Z,16.72
2022-09-18T11:31:44.804Z,16.77
2022-09-18T11:34:19.569Z,16.83
2022-09-18T11:36:50.711Z,16.82
2022-09-18T11:39:24.536Z,16.94
2022-09-18T11:41:56.868Z,17.00
2022-09-18T11:44:28.541Z,16.95
2022-09-18T11:47:33.787Z,17.04
2022-09-18T11:50:11.982Z,17.29
2022-09-18T11:52:42.915Z,17.39
2022-09-18T11:55:18.149Z,17.38
2022-09-18T11:57:51.749Z,17.42
2022-09-18T12:00:22.657Z,17.27
2022-09-18T12:02:59.485Z,17.32
2022-09-18T12:05:30.815Z,17.25
2022-09-18T12:08:03.793Z,17.17
2022-09-18T12:10:50.106Z,17.02
2022-09-18T12:13:40.516Z,16.99
2022-09-18T12:16:15.310Z,17.03
2022-09-18T12:18:51.436Z,17.10
2022-09-18T12:21:23.027Z,17.16
2022-09-18T12:23:52.568Z,17.28
2022-09-18T12:26:23.542Z,17.20
2022-09-18T12:29:06.118Z,16.99
2022-09-18T12:31:38.876Z,16.98
2022-09-18T12:34:11.151Z,17.09
2022-09-18T12:36:50.202Z,17.21
2022-09-18T12:39:33.287Z,17.22
2022-09-18T12:42:12.046Z,17.16
2022-09-18T12:45:22.929Z,17.27
2022-09-18T12:48:03.451Z,17.41
2022-09-18T12:50:48.477Z,17.44
2022-09-18T12:53:37.874Z,17.47
2022-09-18T12:56:15.455Z,17.48
2022-09-18T12:58:57.913Z,17.47
2022-09-18T13:01:30.532Z,17.35
2022-09-18T13:04:05.412Z,17.44
2022-09-18T13:06:38.047Z,17.34
2022-09-18T13:09:13.208Z,17.30
2022-09-18T13:11:43.954Z,17.41
2022-09-18T13:14:15.430Z,17.41
2022-09-18T13:16:50.385Z,17.42
2022-09-18T13:19:24.283Z,17.47
2022-09-18T13:21:53.929Z,17.42
2022-09-18T13:24:25.290Z,17.44
2022-09-18T13:26:54.672Z,17.42
2022-09-18T13:29:51.669Z,17.41
2022-09-18T13:32:21.971Z,17.46
2022-09-18T13:34:55.640Z,17.41
2022-09-18T13:37:26.144Z,17.42
2022-09-18T13:40:09.736Z,17.60
2022-09-18T13:42:41.854Z,17.66
2022-09-18T13:45:16.476Z,17.72
2022-09-18T13:48:02.196Z,17.68
2022-09-18T13:50:34.446Z,17.66
2022-09-18T13:53:05.074Z,17.52
2022-09-18T13:55:50.613Z,17.60
2022-09-18T13:58:38.979Z,17.48
2022-09-18T14:01:09.041Z,17.53
2022-09-18T14:03:42.406Z,17.43
2022-09-18T14:06:41.910Z,17.47
2022-09-18T14:09:47.650Z,17.54
2022-09-18T14:12:18.080Z,17.52
2022-09-18T14:14:58.187Z,17.43
2022-09-18T14:17:28.205Z,17.44
2022-09-18T14:20:01.525Z,17.47
2022-09-18T14:22:34.514Z,17.66
2022-09-18T14:25:07.367Z,17.66
2022-09-18T14:27:42.278Z,17.59
2022-09-18T14:30:19.900Z,17.60
2022-09-18T14:33:03.438Z,17.59
2022-09-18T14:35:42.053Z,17.69
2022-09-18T14:38:26.527Z,17.64
2022-09-18T14:41:00.918Z,17.62
2022-09-18T14:43:30.350Z,17.61
2022-09-18T14:45:59.896Z,17.71
2022-09-18T14:48:30.758Z,17.63
2022-09-18T14:51:04.446Z,17.57
2022-09-18T14:53:33.925Z,17.58
2022-09-18T14:56:07.402Z,17.50
2022-09-18T14:58:38.120Z,17.37
2022-09-18T15:01:08.568Z,17.33
2022-09-18T15:03:39.769Z,17.15
2022-09-18T15:06:12.082Z,17.13
2022-09-18T15:08:41.507Z,17.17
2022-09-18T15:11:14.359Z,17.23
2022-09-18T15:13:43.780Z,17.13
2022-09-18T15:16:20.348Z,17.19
2022-09-18T15:18:52.535Z,17.14
2022-09-18T15:21:24.328Z,17.12
2022-09-18T15:23:53.893Z,17.18
2022-09-18T15:26:26.899Z,17.08
2022-09-18T15:28:56.341Z,17.11
2022-09-18T15:31:25.955Z,17.21
2022-09-18T15:33:57.429Z,17.19
2022-09-18T15:36:28.981Z,17.25
2022-09-18T15:38:58.492Z,17.29
2022-09-18T15:41:41.837Z,17.29
2022-09-18T15:44:46.942Z,17.25
2022-09-18T15:47:32.772Z,17.20
2022-09-18T15:50:02.579Z,17.14
2022-09-18T15:52:38.854Z,17.02
2022-09-18T15:55:19.623Z,16.95
2022-09-18T15:57:53.537Z,16.99
2022-09-18T16:00:23.690Z,16.96
2022-09-18T16:02:53.914Z,16.97
2022-09-18T16:05:23.378Z,16.97
2022-09-18T16:07:56.069Z,16.87
2022-09-18T16:10:48.900Z,16.90
2022-09-18T16:13:33.949Z,16.89
2022-09-18T16:16:17.629Z,16.85
2022-09-18T16:18:56.046Z,16.80
2022-09-18T16:21:27.053Z,16.73
2022-09-18T16:23:58.853Z,16.63
2022-09-18T16:26:31.189Z,16.61
2022-09-18T16:29:04.365Z,16.63
2022-09-18T16:31:34.858Z,16.69
2022-09-18T16:34:05.342Z,16.60
2022-09-18T16:36:35.706Z,16.53
2022-09-18T16:39:07.836Z,16.39
2022-09-18T16:41:37.427Z,16.29
2022-09-18T16:44:10.983Z,16.21
2022-09-18T16:46:41.759Z,16.11
2022-09-18T16:49:11.531Z,16.03
2022-09-18T16:51:40.949Z,16.01
2022-09-18T16:54:10.344Z,15.88
2022-09-18T16:56:42.788Z,15.88
2022-09-18T16:59:14.769Z,15.82
2022-09-18T17:02:02.892Z,15.69
2022-09-18T17:04:33.899Z,15.62
2022-09-18T17:07:03.318Z,15.56
2022-09-18T17:09:32.905Z,15.60
2022-09-18T17:12:02.364Z,15.59
2022-09-18T17:14:34.641Z,15.53
2022-09-18T17:17:06.063Z,15.47
2022-09-18T17:19:35.866Z,15.44
2022-09-18T17:22:05.306Z,15.39
2022-09-18T17:24:34.710Z,15.38
2022-09-18T17:27:04.143Z,15.36
2022-09-18T17:29:36.189Z,15.36
2022-09-18T17:32:06.389Z,15.26
2022-09-18T17:34:35.836Z,15.19
2022-09-18T17:37:05.273Z,15.15
2022-09-18T17:39:34.670Z,15.18
2022-09-18T17:42:04.086Z,15.17
2022-09-18T17:44:37.148Z,15.21
2022-09-18T17:47:06.646Z,15.23
2022-09-18T17:49:36.164Z,15.22
2022-09-18T17:52:06.150Z,15.17
2022-09-18T17:54:36.095Z,15.13
2022-09-18T17:57:11.400Z,15.11
2022-09-18T17:59:45.291Z,15.13
2022-09-18T18:02:15.483Z,15.09
2022-09-18T18:04:44.935Z,15.10
2022-09-18T18:07:14.363Z,15.05
2022-09-18T18:09:43.777Z,15.00
2022-09-18T18:12:13.548Z,14.92
2022-09-18T18:14:45.521Z,14.91
2022-09-18T18:17:15.661Z,14.93
2022-09-18T18:19:45.470Z,14.83
2022-09-18T18:22:14.876Z,14.66
2022-09-18T18:24:44.565Z,14.53
2022-09-18T18:27:13.981Z,14.48
2022-09-18T18:29:45.963Z,14.30
2022-09-18T18:32:15.394Z,14.28
2022-09-18T18:34:44.796Z,14.19
2022-09-18T18:37:14.687Z,14.19
2022-09-18T18:39:44.217Z,14.13
2022-09-18T18:42:13.721Z,14.08
2022-09-18T18:44:45.978Z,13.77
2022-09-18T18:47:17.607Z,13.67
2022-09-18T18:49:46.995Z,13.54
2022-09-18T18:52:16.409Z,13.64
2022-09-18T18:54:45.924Z,13.64
2022-09-18T18:57:15.351Z,13.58
2022-09-18T18:59:47.380Z,13.51
2022-09-18T19:02:17.365Z,13.57
2022-09-18T19:04:46.877Z,13.57
2022-09-18T19:07:16.281Z,13.56
2022-09-18T19:09:45.684Z,13.52
2022-09-18T19:12:17.075Z,13.57
2022-09-18T19:14:50.087Z,13.53
2022-09-18T19:17:19.550Z,13.48
2022-09-18T19:19:49.042Z,13.50
2022-09-18T19:22:18.983Z,13.47
2022-09-18T19:24:48.419Z,13.49
2022-09-18T19:27:18.984Z,13.58
2022-09-18T19:29:51.349Z,13.61
2022-09-18T19:32:21.085Z,13.69
2022-09-18T19:34:50.494Z,13.69
2022-09-18T19:37:19.974Z,13.60
2022-09-18T19:39:50.307Z,13.50
2022-09-18T19:42:19.881Z,13.45
2022-09-18T19:44:52.697Z,13.46
2022-09-18T19:47:23.413Z,13.46
2022-09-18T19:49:53.080Z,13.45
2022-09-18T19:52:23.702Z,13.23
2022-09-18T19:54:54.449Z,12.95
2022-09-18T19:57:24.200Z,12.90
2022-09-18T19:59:57.270Z,12.77
2022-09-18T20:02:26.891Z,12.64
2022-09-18T20:04:56.854Z,12.50
2022-09-18T20:07:26.264Z,12.49
2022-09-18T20:09:55.701Z,12.53
2022-09-18T20:12:25.134Z,12.39
2022-09-18T20:14:57.185Z,12.28
2022-09-18T20:17:27.019Z,12.31
2022-09-18T20:19:56.557Z,12.20
2022-09-18T20:22:26.210Z,12.20
2022-09-18T20:24:55.671Z,12.16
2022-09-18T20:27:26.078Z,12.15
2022-09-18T20:29:58.074Z,12.05
2022-09-18T20:32:27.514Z,12.04
2022-09-18T20:34:57.801Z,12.12
2022-09-18T20:37:32.898Z,12.04
2022-09-18T20:40:04.004Z,11.91
2022-09-18T20:42:34.566Z,11.80
2022-09-18T20:45:07.434Z,11.77
2022-09-18T20:47:37.762Z,11.86
2022-09-18T20:50:10.014Z,11.83
2022-09-18T20:52:42.938Z,11.86
2022-09-18T20:55:13.370Z,11.93
2022-09-18T20:57:44.466Z,12.05
2022-09-18T21:00:17.649Z,12.06
2022-09-18T21:02:49.348Z,11.97
2022-09-18T21:05:18.947Z,11.96
2022-09-18T21:07:48.383Z,11.92
2022-09-18T21:10:17.809Z,11.89
2022-09-18T21:12:47.519Z,11.73
2022-09-18T21:15:19.755Z,11.73
2022-09-18T21:17:52.213Z,11.67
2022-09-18T21:20:21.709Z,11.74
2022-09-18T21:23:03.668Z,11.63
2022-09-18T21:25:33.345Z,11.63
2022-09-18T21:28:05.977Z,11.58
2022-09-18T21:30:38.065Z,11.60
2022-09-18T21:33:11.136Z,11.51
2022-09-18T21:35:41.085Z,11.46
2022-09-18T21:38:12.964Z,11.41
2022-09-18T21:40:43.562Z,11.42
2022-09-18T21:43:15.618Z,11.47
2022-09-18T21:45:48.199Z,11.43
2022-09-18T21:48:17.990Z,11.44
2022-09-18T21:50:47.475Z,11.45
2022-09-18T21:53:16.969Z,11.35
2022-09-18T21:55:47.809Z,11.38
2022-09-18T21:58:20.926Z,11.35
2022-09-18T22:00:53.122Z,11.31
2022-09-18T22:03:22.700Z,11.35
2022-09-18T22:05:53.008Z,11.42
2022-09-18T22:08:22.566Z,11.40
2022-09-18T22:10:52.073Z,11.43
2022-09-18T22:13:23.059Z,11.45
2022-09-18T22:15:58.734Z,11.48
2022-09-18T22:18:28.334Z,11.55
2022-09-18T22:20:58.088Z,11.45
2022-09-18T22:23:27.502Z,11.49
2022-09-18T22:26:01.254Z,11.46
2022-09-18T22:28:31.224Z,11.50
2022-09-18T22:31:05.197Z,11.52
2022-09-18T22:33:34.682Z,11.45
2022-09-18T22:36:05.834Z,11.48
2022-09-18T22:38:35.205Z,11.49
2022-09-18T22:41:05.638Z,11.42
2022-09-18T22:43:35.385Z,11.42
2022-09-18T22:46:08.725Z,11.38
2022-09-18T22:48:38.334Z,11.35
2022-09-18T22:51:09.385Z,11.34
2022-09-18T22:53:41.990Z,11.34
2022-09-18T22:56:15.509Z,11.30
2022-09-18T22:58:45.040Z,11.30
2022-09-18T23:01:18.803Z,11.28
2022-09-18T23:03:49.214Z,11.29
2022-09-18T23:06:21.619Z,11.31
2022-09-18T23:08:54.274Z,11.27
2022-09-18T23:11:24.558Z,11.26
2022-09-18T23:13:55.442Z,11.27
2022-09-18T23:16:28.623Z,11.26
2022-09-18T23:18:59.068Z,11.30
2022-09-18T23:21:29.136Z,11.39
2022-09-18T23:23:58.645Z,11.37
2022-09-18T23:26:29.418Z,11.34
2022-09-18T23:29:00.210Z,11.28
2022-09-18T23:31:33.492Z,11.33
2022-09-18T23:34:08.943Z,11.28
2022-09-18T23:36:39.285Z,11.27
2022-09-18T23:39:09.495Z,11.21
2022-09-18T23:41:38.961Z,11.21
2022-09-18T23:44:09.316Z,11.23
2022-09-18T23:46:41.346Z,11.23
2022-09-18T23:49:12.266Z,11.14
2022-09-18T23:51:43.126Z,11.14
2022-09-18T23:54:17.190Z,11.13
2022-09-18T23:56:46.700Z,11.07
2022-09-18T23:59:18.640Z,11.12
